Time;durP1;ratioP1;P1;durP2;ratioP2;P2;SDS_P1;SDS_P2;PMS_P1;PMS_P2;Temp;Humidity;BMP_temperature;BMP_pressure;BME280_temperature;BME280_humidity;BME280_pressure;Samples;Min_cycle;Max_cycle;Signal;HPM_P1;HPM_P2
2023/09/20 00:02:17;;;;;;;7.60;4.20;;;;;;;12.99;92.50;100265.08;108972;278;38529;-75
2023/09/20 00:05:00;;;;;;;6.00;4.40;;;;;;;13.01;92.80;100268.32;108982;278;38228;-73
2023/09/20 00:07:46;;;;;;;10.80;4.40;;;;;;;12.99;92.72;100269.47;109010;278;38609;-75
2023/09/20 00:10:41;;;;;;;8.00;4.40;;;;;;;12.98;92.88;100268.45;108950;278;38320;-73
2023/09/20 00:13:21;;;;;;;5.00;4.10;;;;;;;12.95;92.61;100267.73;108917;278;38142;-73
2023/09/20 00:15:56;;;;;;;6.00;4.10;;;;;;;12.95;92.80;100270.17;108942;278;38345;-75
2023/09/20 00:18:32;;;;;;;6.50;4.30;;;;;;;12.96;92.94;100268.58;108940;278;39517;-73
2023/09/20 00:21:06;;;;;;;7.50;4.50;;;;;;;12.94;93.09;100268.64;108922;278;39060;-73
2023/09/20 00:23:43;;;;;;;5.80;4.00;;;;;;;12.94;93.08;100270.59;108927;278;39338;-73
2023/09/20 00:26:18;;;;;;;5.80;3.70;;;;;;;12.93;92.92;100270.81;108935;278;38501;-73
2023/09/20 00:28:52;;;;;;;6.10;3.70;;;;;;;12.93;92.95;100274.66;108748;278;174920;-73
2023/09/20 00:31:52;;;;;;;8.90;4.60;;;;;;;12.90;92.61;100273.54;108963;278;38483;-73
2023/09/20 00:34:38;;;;;;;7.10;4.10;;;;;;;12.86;92.65;100270.27;108974;278;38237;-73
2023/09/20 00:37:15;;;;;;;6.80;4.00;;;;;;;12.82;92.40;100271.86;109019;278;39346;-73
2023/09/20 00:39:54;;;;;;;6.50;3.90;;;;;;;12.79;92.28;100276.58;108338;278;903409;-73
2023/09/20 00:42:31;;;;;;;7.80;3.80;;;;;;;12.74;92.25;100276.45;109043;278;39051;-76
2023/09/20 00:45:08;;;;;;;7.20;4.40;;;;;;;12.70;92.47;100277.73;109001;278;39434;-73
2023/09/20 00:48:00;;;;;;;5.60;3.80;;;;;;;12.66;92.49;100278.22;108985;278;40507;-73
2023/09/20 00:50:44;;;;;;;4.80;3.40;;;;;;;12.63;92.69;100284.33;108980;278;38142;-73
2023/09/20 00:53:20;;;;;;;7.30;3.90;;;;;;;12.59;92.38;100283.99;108932;278;38177;-74
2023/09/20 00:55:55;;;;;;;6.90;3.90;;;;;;;12.58;92.66;100284.91;108945;278;39322;-74
2023/09/20 00:58:30;;;;;;;6.50;4.40;;;;;;;12.57;92.90;100288.29;108869;278;40617;-72
2023/09/20 01:01:05;;;;;;;7.20;3.70;;;;;;;12.57;92.95;100287.73;108867;278;38167;-74
2023/09/20 01:03:41;;;;;;;6.10;4.10;;;;;;;12.57;93.17;100287.76;108774;278;175261;-76
2023/09/20 01:06:17;;;;;;;6.20;3.50;;;;;;;12.57;93.10;100286.73;108905;278;39208;-75
2023/09/20 01:08:51;;;;;;;6.40;3.80;;;;;;;12.56;93.18;100279.92;108943;278;38767;-73
2023/09/20 01:11:26;;;;;;;6.60;3.90;;;;;;;12.57;93.21;100285.84;108897;278;38345;-75
2023/09/20 01:14:01;;;;;;;5.80;4.10;;;;;;;12.58;93.27;100289.66;108949;278;38144;-73
2023/09/20 01:16:36;;;;;;;4.80;4.40;;;;;;;12.56;93.31;100289.21;108955;278;38232;-75
2023/09/20 01:19:10;;;;;;;8.30;4.00;;;;;;;12.55;93.20;100286.81;109011;278;38768;-74
2023/09/20 01:21:49;;;;;;;8.00;4.00;;;;;;;12.56;93.46;100289.23;109023;277;39645;-73
2023/09/20 01:24:24;;;;;;;5.10;3.90;;;;;;;12.54;93.34;100291.05;108991;278;38455;-74
2023/09/20 01:27:09;;;;;;;6.20;3.70;;;;;;;12.54;93.25;100293.50;109008;278;40028;-73
2023/09/20 01:29:54;;;;;;;6.00;4.20;;;;;;;12.55;93.52;100299.56;109037;278;38171;-73
2023/09/20 01:32:39;;;;;;;6.90;4.10;;;;;;;12.56;93.65;100297.11;109107;278;39660;-73
2023/09/20 01:35:22;;;;;;;4.80;3.20;;;;;;;12.56;93.60;100299.71;108970;278;38309;-73
2023/09/20 01:38:06;;;;;;;6.10;3.40;;;;;;;12.56;93.81;100303.21;108955;278;38757;-73
2023/09/20 01:40:55;;;;;;;4.30;3.20;;;;;;;12.58;93.82;100297.86;108973;278;38245;-76
2023/09/20 01:43:33;;;;;;;7.00;3.70;;;;;;;12.61;93.88;100300.33;108947;278;38152;-73
2023/09/20 01:46:25;;;;;;;4.90;3.80;;;;;;;12.63;93.77;100304.29;108965;278;39196;-73
2023/09/20 01:49:10;;;;;;;5.70;3.40;;;;;;;12.60;93.70;100298.98;108953;278;38456;-75
2023/09/20 01:51:49;;;;;;;5.30;3.40;;;;;;;12.61;93.72;100299.65;108928;278;38402;-76
2023/09/20 01:54:28;;;;;;;8.90;3.80;;;;;;;12.61;93.60;100300.71;108965;278;38918;-75
2023/09/20 01:57:05;;;;;;;5.20;3.50;;;;;;;12.60;93.41;100299.89;109011;278;38852;-74
2023/09/20 01:59:41;;;;;;;4.10;3.00;;;;;;;12.60;93.48;100302.48;108992;278;38470;-74
2023/09/20 02:02:15;;;;;;;6.70;3.90;;;;;;;12.58;93.28;100301.54;108941;278;38317;-74
2023/09/20 02:04:51;;;;;;;5.10;3.50;;;;;;;12.56;93.26;100298.85;109019;278;38298;-74
2023/09/20 02:07:26;;;;;;;5.50;3.90;;;;;;;12.56;93.63;100304.60;108974;278;39606;-75
2023/09/20 02:10:04;;;;;;;4.10;2.90;;;;;;;12.57;93.50;100305.09;108979;278;38564;-73
2023/09/20 02:12:43;;;;;;;6.60;3.60;;;;;;;12.56;93.35;100306.19;108999;278;38337;-73
2023/09/20 02:15:47;;;;;;;5.80;3.70;;;;;;;12.55;93.38;100307.47;108945;278;38254;-73
2023/09/20 02:18:38;;;;;;;5.20;3.50;;;;;;;12.53;93.48;100308.11;108996;278;38374;-74
2023/09/20 02:21:15;;;;;;;4.70;3.60;;;;;;;12.52;93.67;100310.77;109035;278;39281;-75
2023/09/20 02:23:52;;;;;;;9.20;3.60;;;;;;;12.52;93.69;100310.42;108942;278;38379;-74
2023/09/20 02:26:29;;;;;;;5.30;3.10;;;;;;;12.51;93.49;100313.25;108232;278;898925;-75
2023/09/20 02:29:08;;;;;;;4.50;3.10;;;;;;;12.51;93.52;100312.41;108874;278;38746;-73
2023/09/20 02:31:56;;;;;;;5.10;3.60;;;;;;;12.49;93.49;100313.52;108961;278;38302;-76
2023/09/20 02:34:43;;;;;;;5.40;3.20;;;;;;;12.47;93.52;100316.41;108958;278;38288;-75
2023/09/20 02:37:19;;;;;;;4.40;3.10;;;;;;;12.44;93.34;100314.27;108994;278;38388;-76
2023/09/20 02:39:57;;;;;;;9.60;3.70;;;;;;;12.45;93.45;100316.54;108956;278;38252;-76
2023/09/20 02:42:32;;;;;;;4.90;3.50;;;;;;;12.45;93.48;100313.17;109001;278;38790;-74
2023/09/20 02:45:12;;;;;;;4.20;3.10;;;;;;;12.42;93.15;100314.38;109026;278;39492;-74
2023/09/20 02:48:06;;;;;;;4.90;3.20;;;;;;;12.36;92.90;100317.59;108986;278;39287;-74
2023/09/20 02:50:51;;;;;;;6.90;3.00;;;;;;;12.33;93.10;100316.73;109001;278;38137;-74
2023/09/20 02:53:25;;;;;;;5.90;3.20;;;;;;;12.33;93.38;100316.89;108980;278;38177;-74
2023/09/20 02:56:00;;;;;;;5.90;3.50;;;;;;;12.35;93.51;100315.05;108975;278;39113;-75
2023/09/20 02:58:37;;;;;;;3.90;3.30;;;;;;;12.35;93.36;100314.55;108911;278;39901;-74
2023/09/20 03:01:16;;;;;;;4.10;3.10;;;;;;;12.33;93.43;100317.56;108986;278;39755;-76
2023/09/20 03:03:50;;;;;;;7.70;3.10;;;;;;;12.31;93.23;100315.94;108912;278;38324;-74
2023/09/20 03:06:29;;;;;;;6.60;3.20;;;;;;;12.30;93.17;100318.78;108920;278;38986;-74
2023/09/20 03:09:06;;;;;;;6.10;3.20;;;;;;;12.30;93.42;100317.39;108929;278;38168;-74
2023/09/20 03:11:42;;;;;;;5.80;3.60;;;;;;;12.30;93.35;100315.30;108945;278;38772;-75
2023/09/20 03:14:18;;;;;;;9.40;3.80;;;;;;;12.27;93.40;100324.50;108893;278;39187;-75
2023/09/20 03:17:00;;;;;;;5.40;3.00;;;;;;;12.24;93.22;100322.02;108972;278;38635;-73
2023/09/20 03:19:46;;;;;;;5.20;2.80;;;;;;;12.22;93.30;100323.49;108984;278;38270;-74
2023/09/20 03:22:46;;;;;;;3.90;3.00;;;;;;;12.22;93.41;100320.36;108980;277;38520;-74
2023/09/20 03:25:34;;;;;;;5.80;3.30;;;;;;;12.23;93.57;100318.23;108993;278;38164;-75
2023/09/20 03:28:12;;;;;;;4.60;3.20;;;;;;;12.24;93.70;100317.30;108888;278;38748;-73
2023/09/20 03:30:54;;;;;;;5.30;3.20;;;;;;;12.25;93.60;100319.18;108995;278;38451;-73
2023/09/20 03:33:33;;;;;;;5.40;3.20;;;;;;;12.24;93.46;100316.59;108947;278;39232;-73
2023/09/20 03:36:15;;;;;;;5.80;3.10;;;;;;;12.23;93.46;100319.09;108932;278;38430;-74
2023/09/20 03:38:49;;;;;;;4.50;3.60;;;;;;;12.21;93.23;100317.27;108907;278;38093;-73
2023/09/20 03:41:24;;;;;;;5.40;3.20;;;;;;;12.19;93.25;100321.92;109001;278;38983;-73
2023/09/20 03:44:00;;;;;;;7.40;3.10;;;;;;;12.18;93.34;100323.89;108901;278;38923;-74
2023/09/20 03:46:40;;;;;;;4.20;3.00;;;;;;;12.17;93.41;100319.54;108934;278;39506;-73
2023/09/20 03:49:21;;;;;;;3.80;3.00;;;;;;;12.17;93.30;100319.19;108959;278;39323;-73
2023/09/20 03:52:08;;;;;;;4.50;3.00;;;;;;;12.15;93.17;100319.78;108927;278;38163;-74
2023/09/20 03:54:43;;;;;;;4.30;3.40;;;;;;;12.14;93.29;100319.85;108903;278;38461;-73
2023/09/20 03:57:24;;;;;;;4.60;2.60;;;;;;;12.11;93.24;100317.88;108896;278;38240;-73
2023/09/20 03:59:58;;;;;;;4.10;3.30;;;;;;;12.11;93.16;100318.39;108895;278;38394;-73
2023/09/20 04:02:33;;;;;;;3.40;2.80;;;;;;;12.10;92.99;100322.84;108957;278;39258;-73
2023/09/20 04:05:13;;;;;;;3.60;2.70;;;;;;;12.08;93.10;100321.68;108914;278;39643;-73
2023/09/20 04:10:54;;;;;;;5.20;3.40;;;;;;;12.02;93.13;100322.48;108837;278;38869;-73
2023/09/20 04:13:31;;;;;;;5.00;2.90;;;;;;;12.02;93.26;100321.27;108960;278;38192;-74
2023/09/20 04:16:15;;;;;;;8.40;3.10;;;;;;;12.01;93.06;100324.31;109002;278;38223;-73
2023/09/20 04:19:04;;;;;;;5.40;3.30;;;;;;;12.02;93.37;100325.30;109020;278;38696;-74
2023/09/20 04:22:01;;;;;;;4.00;2.90;;;;;;;12.03;93.38;100326.28;109034;278;38345;-73
2023/09/20 04:24:45;;;;;;;4.40;3.20;;;;;;;12.03;93.35;100327.15;109072;278;38714;-73
2023/09/20 04:27:23;;;;;;;4.70;2.80;;;;;;;12.03;93.53;100328.91;108982;278;38790;-73
2023/09/20 04:30:03;;;;;;;5.90;3.00;;;;;;;12.05;93.57;100327.23;108935;278;39354;-72
2023/09/20 04:32:40;;;;;;;6.00;3.40;;;;;;;12.10;93.76;100325.98;108922;278;39104;-73
2023/09/20 04:35:17;;;;;;;4.00;3.10;;;;;;;12.17;93.93;100327.77;108891;278;38699;-75
2023/09/20 04:38:03;;;;;;;10.50;3.30;;;;;;;12.20;93.90;100328.48;108961;278;38292;-73
2023/09/20 04:40:50;;;;;;;5.50;3.00;;;;;;;12.22;93.83;100327.18;108908;278;39357;-73
2023/09/20 04:43:25;;;;;;;4.60;3.10;;;;;;;12.25;93.97;100327.73;108814;278;175370;-72
2023/09/20 04:46:03;;;;;;;5.60;3.00;;;;;;;12.29;93.98;100324.04;108981;278;38803;-73
2023/09/20 04:48:39;;;;;;;4.40;3.30;;;;;;;12.33;93.90;100327.90;108922;278;39310;-74
2023/09/20 04:51:14;;;;;;;4.40;3.40;;;;;;;12.38;94.23;100326.27;108913;278;38802;-74
2023/09/20 04:53:50;;;;;;;4.80;3.10;;;;;;;12.43;94.28;100321.52;108944;278;38140;-73
2023/09/20 04:56:24;;;;;;;3.50;2.90;;;;;;;12.47;94.38;100317.45;108982;278;38269;-73
2023/09/20 04:58:58;;;;;;;5.10;3.10;;;;;;;12.55;94.50;100317.77;108977;278;38320;-73
2023/09/20 05:01:37;;;;;;;5.80;3.20;;;;;;;12.64;94.59;100319.63;108976;278;38186;-73
2023/09/20 05:04:13;;;;;;;3.80;3.30;;;;;;;12.71;94.59;100320.18;108964;278;38179;-74
2023/09/20 05:06:48;;;;;;;4.20;3.40;;;;;;;12.82;95.40;100321.94;108989;278;38369;-73
2023/09/20 05:09:26;;;;;;;6.00;2.90;;;;;;;13.06;96.88;100319.19;108960;278;38340;-73
2023/09/20 05:12:22;;;;;;;3.60;2.90;;;;;;;13.32;97.71;100317.58;109043;278;38447;-72
2023/09/20 05:15:15;;;;;;;4.20;3.10;;;;;;;13.42;96.20;100322.30;109044;278;38285;-73
2023/09/20 05:17:56;;;;;;;5.90;3.30;;;;;;;13.48;95.07;100323.62;108934;274;39887;-74
2023/09/20 05:20:35;;;;;;;4.40;3.10;;;;;;;13.49;94.46;100321.10;108927;278;38809;-74
2023/09/20 05:23:28;;;;;;;3.70;3.10;;;;;;;13.51;94.00;100322.23;108970;278;38167;-73
2023/09/20 05:26:24;;;;;;;3.90;2.70;;;;;;;13.56;94.33;100319.02;109000;278;38276;-75
2023/09/20 05:29:26;;;;;;;4.60;3.00;;;;;;;13.64;94.12;100324.36;108960;278;38309;-74
2023/09/20 05:32:05;;;;;;;5.00;3.40;;;;;;;13.73;93.93;100326.38;108952;277;38673;-73
2023/09/20 05:34:46;;;;;;;5.60;3.40;;;;;;;13.81;94.01;100321.34;108903;278;38162;-74
2023/09/20 05:37:22;;;;;;;4.60;3.30;;;;;;;13.89;93.86;100321.27;108944;278;38282;-73
2023/09/20 05:39:57;;;;;;;5.10;3.10;;;;;;;13.95;93.66;100319.78;108864;278;38950;-73
2023/09/20 05:42:31;;;;;;;7.30;3.40;;;;;;;14.01;93.39;100320.18;108922;278;38184;-75
2023/09/20 05:45:08;;;;;;;5.70;3.10;;;;;;;14.11;93.13;100322.77;108911;278;38765;-74
2023/09/20 05:47:42;;;;;;;6.40;3.40;;;;;;;14.42;94.11;100323.89;109016;278;38775;-74
2023/09/20 05:50:16;;;;;;;5.40;3.70;;;;;;;14.84;95.63;100324.06;108983;278;39358;-75
2023/09/20 05:52:56;;;;;;;6.60;3.70;;;;;;;15.23;95.49;100319.91;108969;278;38295;-75
2023/09/20 05:55:33;;;;;;;5.10;3.10;;;;;;;15.58;95.46;100319.42;108982;278;38889;-76
2023/09/20 05:58:08;;;;;;;4.40;2.90;;;;;;;15.67;91.71;100322.95;108935;278;38788;-76
2023/09/20 06:00:42;;;;;;;4.20;3.40;;;;;;;15.75;91.61;100322.45;108890;278;38822;-74
2023/09/20 06:03:28;;;;;;;5.70;2.90;;;;;;;15.97;91.77;100318.83;108937;278;38972;-75
2023/09/20 06:06:03;;;;;;;4.10;2.90;;;;;;;16.00;90.31;100316.92;108922;278;40828;-75
2023/09/20 06:08:42;;;;;;;6.80;3.00;;;;;;;15.97;89.50;100316.05;108941;278;38200;-74
2023/09/20 06:11:18;;;;;;;4.90;2.80;;;;;;;15.98;89.61;100322.83;108930;278;39585;-74
2023/09/20 06:13:53;;;;;;;6.10;3.00;;;;;;;15.99;89.02;100325.39;108910;278;39792;-74
2023/09/20 06:16:40;;;;;;;5.90;3.90;;;;;;;15.98;88.12;100322.25;108898;278;39397;-76
2023/09/20 06:19:32;;;;;;;6.20;3.50;;;;;;;16.05;88.12;100321.89;108935;278;38182;-73
2023/09/20 06:22:09;;;;;;;4.30;3.00;;;;;;;16.07;87.99;100324.05;108921;278;38597;-75
2023/09/20 06:24:48;;;;;;;7.90;2.80;;;;;;;16.09;87.32;100325.99;108965;278;39410;-78
2023/09/20 06:27:32;;;;;;;6.30;3.60;;;;;;;16.11;86.77;100328.18;108965;278;38195;-75
2023/09/20 06:30:24;;;;;;;5.80;3.60;;;;;;;16.21;87.21;100330.71;108984;278;38237;-76
2023/09/20 06:33:10;;;;;;;7.00;3.20;;;;;;;16.30;86.39;100328.09;109005;278;38689;-72
2023/09/20 06:35:49;;;;;;;4.30;3.20;;;;;;;16.39;86.28;100329.41;108935;278;38196;-71
2023/09/20 06:38:26;;;;;;;;;;;;;;;16.44;85.64;100330.01;108981;278;39348;-72
2023/09/20 06:41:01;;;;;;;5.00;3.30;;;;;;;16.47;85.35;100334.61;109007;278;38151;-71
2023/09/20 06:43:38;;;;;;;4.10;3.40;;;;;;;16.51;85.26;100335.70;108953;278;38375;-74
2023/09/20 06:46:12;;;;;;;4.20;3.00;;;;;;;16.60;85.33;100341.69;108960;278;38794;-71
2023/09/20 06:48:48;;;;;;;4.80;3.60;;;;;;;16.71;85.08;100336.60;108908;278;38193;-73
2023/09/20 06:51:23;;;;;;;6.90;3.20;;;;;;;16.78;84.81;100340.56;108893;278;38984;-71
2023/09/20 06:54:00;;;;;;;4.80;3.10;;;;;;;16.85;84.27;100340.96;108917;278;38259;-73
2023/09/20 06:56:38;;;;;;;5.00;3.10;;;;;;;16.92;84.05;100341.55;108933;278;38494;-71
2023/09/20 06:59:15;;;;;;;4.60;3.20;;;;;;;17.02;83.79;100344.48;108430;278;669812;-71
2023/09/20 07:01:55;;;;;;;8.20;3.20;;;;;;;17.12;83.41;100349.30;108938;278;38597;-72
2023/09/20 07:04:32;;;;;;;5.80;3.30;;;;;;;17.20;83.51;100347.15;108928;278;38302;-73
2023/09/20 07:07:10;;;;;;;7.60;3.30;;;;;;;17.33;83.48;100348.07;108902;278;39815;-74
2023/09/20 07:10:05;;;;;;;5.40;3.10;;;;;;;17.47;82.68;100349.58;108941;278;38189;-73
2023/09/20 07:12:45;;;;;;;9.50;3.80;;;;;;;17.63;82.62;100349.38;109001;278;38354;-70
2023/09/20 07:15:27;;;;;;;5.90;3.20;;;;;;;17.75;82.26;100352.98;108964;278;38216;-70
2023/09/20 07:18:11;;;;;;;8.70;3.40;;;;;;;17.89;81.35;100357.04;108961;278;38322;-69
2023/09/20 07:20:54;;;;;;;7.60;3.60;;;;;;;17.98;80.60;100358.88;108974;278;38260;-69
2023/09/20 07:23:30;;;;;;;6.80;4.10;;;;;;;18.07;80.61;100354.16;108936;278;39402;-71
2023/09/20 07:26:12;;;;;;;5.90;3.70;;;;;;;18.17;80.51;100357.03;109008;278;38270;-71
2023/09/20 07:28:51;;;;;;;6.00;4.30;;;;;;;18.26;80.04;100361.33;108941;278;38224;-71
2023/09/20 07:31:26;;;;;;;6.70;3.80;;;;;;;18.35;80.04;100366.17;108943;278;38238;-70
2023/09/20 07:34:04;;;;;;;6.60;4.30;;;;;;;18.46;79.89;100366.94;108919;278;38475;-72
2023/09/20 07:36:40;;;;;;;7.40;3.90;;;;;;;18.57;79.44;100371.30;108956;278;38173;-71
2023/09/20 07:39:20;;;;;;;10.30;4.90;;;;;;;18.68;79.72;100374.77;108915;278;39159;-72
2023/09/20 07:41:58;;;;;;;6.40;4.10;;;;;;;18.81;80.13;100376.48;108921;278;39246;-71
2023/09/20 07:44:36;;;;;;;6.80;4.40;;;;;;;18.98;79.42;100378.47;108863;278;38422;-71
2023/09/20 07:47:11;;;;;;;5.00;3.60;;;;;;;19.24;78.40;100379.38;108937;278;38686;-71
2023/09/20 07:49:50;;;;;;;5.50;4.00;;;;;;;19.62;78.21;100376.87;108884;278;38256;-71
2023/09/20 07:52:27;;;;;;;6.10;3.80;;;;;;;20.19;77.50;100379.42;108967;278;38435;-72
2023/09/20 07:55:12;;;;;;;7.70;3.60;;;;;;;20.85;75.70;100380.92;108945;278;38624;-71
2023/09/20 07:57:53;;;;;;;4.30;3.40;;;;;;;21.69;72.99;100381.33;108982;278;39067;-72
2023/09/20 08:00:27;;;;;;;6.00;3.80;;;;;;;22.61;71.64;100382.98;108985;278;38352;-72
2023/09/20 08:03:02;;;;;;;4.70;3.00;;;;;;;23.58;68.25;100380.80;108918;278;38253;-71
2023/09/20 08:05:37;;;;;;;5.00;3.60;;;;;;;24.53;65.84;100378.99;108949;278;38406;-71
2023/09/20 08:08:11;;;;;;;4.70;3.50;;;;;;;25.48;61.85;100377.52;108902;278;38297;-74
2023/09/20 08:10:48;;;;;;;4.80;3.10;;;;;;;26.40;58.30;100377.63;108881;278;38465;-74
2023/09/20 08:13:25;;;;;;;4.60;2.70;;;;;;;27.18;53.46;100381.86;108873;278;39661;-75
2023/09/20 08:16:02;;;;;;;4.80;3.10;;;;;;;27.84;52.29;100378.38;108971;278;39595;-74
2023/09/20 08:21:26;;;;;;;6.20;2.90;;;;;;;28.98;48.21;100376.25;108809;278;171574;-73
2023/09/20 09:00:46;;;;;;;3.70;2.60;;;;;;;27.40;42.96;100355.12;108901;278;39503;-73
2023/09/20 09:03:21;;;;;;;4.50;2.50;;;;;;;27.05;42.53;100356.06;108951;278;38274;-72
2023/09/20 09:06:00;;;;;;;4.80;2.60;;;;;;;26.73;42.82;100356.37;108978;278;38129;-74
2023/09/20 09:08:34;;;;;;;4.20;2.40;;;;;;;26.48;42.96;100351.34;109003;278;40453;-75
2023/09/20 09:11:09;;;;;;;3.50;2.50;;;;;;;26.29;44.46;100354.42;108981;278;39022;-74
2023/09/20 09:13:42;;;;;;;5.70;3.20;;;;;;;26.14;44.86;100355.59;108885;278;38527;-72
2023/09/20 09:16:19;;;;;;;8.20;3.30;;;;;;;26.07;44.93;100356.19;108844;278;171766;-74
2023/09/20 09:18:54;;;;;;;5.30;3.00;;;;;;;26.07;44.83;100356.91;108803;278;38532;-73
2023/09/20 09:21:28;;;;;;;5.30;2.90;;;;;;;26.22;44.87;100357.48;108913;278;39889;-74
2023/09/20 09:24:04;;;;;;;4.40;2.80;;;;;;;26.55;44.76;100362.82;108904;278;38352;-73
2023/09/20 09:26:40;;;;;;;4.50;2.30;;;;;;;27.06;43.46;100365.37;108974;278;39571;-72
2023/09/20 09:29:22;;;;;;;6.50;3.70;;;;;;;27.62;42.67;100367.55;108888;278;38572;-73
2023/09/20 09:31:56;;;;;;;5.30;2.60;;;;;;;28.11;41.93;100359.77;108889;278;38361;-74
2023/09/20 09:34:32;;;;;;;4.00;2.60;;;;;;;28.62;40.81;100357.60;108870;278;38799;-73
2023/09/20 09:37:07;;;;;;;6.40;3.10;;;;;;;29.13;40.58;100354.60;108943;278;38473;-74
2023/09/20 09:39:42;;;;;;;4.40;2.70;;;;;;;29.53;39.67;100348.31;108941;278;38357;-74
2023/09/20 09:42:26;;;;;;;5.20;2.50;;;;;;;29.78;39.17;100350.30;108946;278;38272;-73
2023/09/20 09:45:09;;;;;;;6.30;2.50;;;;;;;29.85;38.44;100356.22;108918;277;38254;-72
2023/09/20 09:47:47;;;;;;;3.00;2.30;;;;;;;29.66;37.50;100354.70;108942;278;38237;-75
2023/09/20 09:50:21;;;;;;;4.50;2.60;;;;;;;29.33;37.41;100349.95;108924;278;38830;-75
2023/09/20 09:53:02;;;;;;;5.20;2.40;;;;;;;28.93;37.92;100348.64;108863;278;39220;-73
2023/09/20 09:55:41;;;;;;;5.70;2.40;;;;;;;28.48;37.68;100351.67;108906;278;38251;-73
2023/09/20 09:58:17;;;;;;;3.20;2.30;;;;;;;28.02;37.42;100354.75;108983;278;38296;-71
2023/09/20 10:00:55;;;;;;;4.20;2.30;;;;;;;27.57;38.11;100361.11;108870;278;39299;-72
2023/09/20 10:03:32;;;;;;;3.90;2.00;;;;;;;27.14;38.40;100355.79;108932;278;39531;-77
2023/09/20 10:06:31;;;;;;;4.60;2.10;;;;;;;26.75;38.96;100357.63;108931;278;37956;-76
2023/09/20 10:09:12;;;;;;;4.00;2.30;;;;;;;26.43;39.58;100363.02;108882;278;39342;-76
2023/09/20 10:11:47;;;;;;;3.60;2.20;;;;;;;26.21;39.78;100361.90;108964;278;39489;-75
2023/09/20 10:14:27;;;;;;;4.00;2.20;;;;;;;25.99;40.26;100361.27;108986;278;38241;-75
2023/09/20 10:17:08;;;;;;;4.80;2.40;;;;;;;25.78;40.93;100361.98;109057;278;38368;-75
2023/09/20 10:19:42;;;;;;;3.30;2.40;;;;;;;25.63;41.12;100359.95;108954;278;39581;-75
2023/09/20 10:22:19;;;;;;;4.70;2.70;;;;;;;25.47;40.11;100362.30;108914;278;38579;-76
2023/09/20 10:24:58;;;;;;;3.80;2.30;;;;;;;25.25;40.68;100363.04;108900;278;38749;-76
2023/09/20 10:27:34;;;;;;;;;;;;;;;25.11;41.88;100361.63;108880;278;37733;-76
2023/09/20 10:30:13;;;;;;;4.90;2.50;;;;;;;24.97;42.32;100363.48;108922;278;38360;-76
2023/09/20 10:32:59;;;;;;;4.00;2.30;;;;;;;24.85;42.01;100359.52;108797;278;38853;-76
2023/09/20 10:35:34;;;;;;;4.70;2.20;;;;;;;24.72;42.47;100356.30;108863;278;38152;-75
2023/09/20 10:38:27;;;;;;;5.00;2.20;;;;;;;24.65;42.36;100352.90;108907;278;38899;-74
2023/09/20 10:41:15;;;;;;;5.50;2.10;;;;;;;24.59;42.74;100357.24;108965;278;38460;-77
2023/09/20 10:44:02;;;;;;;5.40;2.70;;;;;;;24.52;42.86;100355.27;108931;278;40633;-77
2023/09/20 10:46:40;;;;;;;5.50;2.10;;;;;;;24.48;43.02;100355.27;108988;278;40281;-76
2023/09/20 10:49:47;;;;;;;3.50;2.30;;;;;;;24.44;42.92;100352.28;108884;278;39330;-77
2023/09/20 10:53:00;;;;;;;4.80;1.90;;;;;;;24.34;43.16;100350.90;108924;278;38181;-75
2023/09/20 10:55:42;;;;;;;3.70;2.10;;;;;;;24.28;43.28;100348.64;108914;278;38519;-76
2023/09/20 10:58:23;;;;;;;6.00;2.20;;;;;;;24.23;43.17;100347.53;108937;278;38916;-77
2023/09/20 11:01:03;;;;;;;5.90;1.90;;;;;;;24.18;42.82;100351.52;108905;279;38203;-76
2023/09/20 11:03:40;;;;;;;3.70;1.80;;;;;;;24.14;42.62;100348.29;108867;279;39318;-75
2023/09/20 11:06:21;;;;;;;4.20;2.00;;;;;;;24.11;43.01;100346.52;108852;279;38681;-75
2023/09/20 11:08:56;;;;;;;4.20;1.90;;;;;;;24.06;42.99;100345.33;108868;279;38532;-75
2023/09/20 11:11:37;;;;;;;5.20;2.00;;;;;;;24.02;43.10;100347.54;108902;279;39908;-75
2023/09/20 11:14:13;;;;;;;4.20;1.70;;;;;;;23.98;43.18;100345.27;108909;279;38239;-75
2023/09/20 11:16:53;;;;;;;3.20;1.70;;;;;;;23.96;43.62;100340.05;108834;279;174665;-75
2023/09/20 11:19:29;;;;;;;4.70;2.10;;;;;;;23.97;43.52;100339.39;108880;279;38247;-74
2023/09/20 11:22:07;;;;;;;5.20;2.10;;;;;;;23.98;43.75;100340.09;108912;279;38475;-76
2023/09/20 11:24:47;;;;;;;4.00;2.00;;;;;;;23.97;43.59;100341.39;108878;279;38330;-75
2023/09/20 11:27:23;;;;;;;4.20;2.10;;;;;;;23.96;43.81;100337.03;108912;279;38354;-75
2023/09/20 11:30:05;;;;;;;5.20;2.30;;;;;;;23.94;43.69;100340.06;108887;279;39363;-74
2023/09/20 11:32:40;;;;;;;4.40;2.10;;;;;;;23.92;42.97;100340.12;108847;279;38722;-75
2023/09/20 11:35:29;;;;;;;4.60;2.20;;;;;;;23.88;43.49;100341.51;108884;279;38181;-75
2023/09/20 11:38:06;;;;;;;3.90;1.90;;;;;;;23.86;43.52;100340.06;108908;279;38255;-74
2023/09/20 11:40:45;;;;;;;4.60;2.00;;;;;;;23.86;44.08;100335.52;108852;279;38339;-73
2023/09/20 11:43:24;;;;;;;5.00;2.00;;;;;;;23.87;44.41;100339.31;108859;279;39450;-75
2023/09/20 11:46:00;;;;;;;5.30;2.00;;;;;;;23.89;44.36;100337.89;108830;279;38142;-75
2023/09/20 11:48:36;;;;;;;3.00;1.90;;;;;;;23.89;44.31;100339.08;108926;279;38282;-74
2023/09/20 11:51:13;;;;;;;5.80;2.50;;;;;;;23.85;44.04;100335.90;108928;279;38321;-69
2023/09/20 11:53:48;;;;;;;3.70;1.90;;;;;;;23.82;44.48;100334.30;108905;279;38152;-68
2023/09/20 11:56:29;;;;;;;4.50;1.80;;;;;;;23.79;44.58;100332.95;108925;279;38174;-70
2023/09/20 11:59:07;;;;;;;3.00;1.60;;;;;;;23.77;44.57;100334.42;108931;278;39555;-70
2023/09/20 12:01:45;;;;;;;4.10;2.00;;;;;;;23.78;44.60;100331.95;108975;278;38442;-69
2023/09/20 12:04:28;;;;;;;4.90;1.90;;;;;;;23.80;44.54;100320.90;108889;278;38890;-69
2023/09/20 12:07:07;;;;;;;4.70;2.00;;;;;;;23.79;44.76;100325.63;108918;278;38484;-71
2023/09/20 12:09:47;;;;;;;3.40;2.10;;;;;;;23.79;44.52;100326.04;108779;278;174647;-71
2023/09/20 12:12:25;;;;;;;4.20;2.20;;;;;;;23.73;44.39;100327.42;108934;278;39469;-71
2023/09/20 12:15:06;;;;;;;3.60;1.80;;;;;;;23.68;44.38;100327.24;108897;278;38696;-72
2023/09/20 12:17:40;;;;;;;3.40;1.90;;;;;;;23.64;45.03;100327.23;108938;278;39030;-69
2023/09/20 12:20:17;;;;;;;4.40;2.10;;;;;;;23.61;44.75;100327.07;108907;278;38160;-69
2023/09/20 12:22:55;;;;;;;3.10;2.20;;;;;;;23.59;44.84;100322.83;108997;278;39394;-73
2023/09/20 12:25:35;;;;;;;5.10;1.80;;;;;;;23.57;45.07;100321.62;109005;278;39652;-71
2023/09/20 12:28:13;;;;;;;15.00;6.80;;;;;;;23.54;44.50;100323.29;109000;278;38174;-70
2023/09/20 12:30:54;;;;;;;7.10;2.90;;;;;;;23.51;44.69;100316.83;108965;278;38622;-71
2023/09/20 12:33:28;;;;;;;10.30;4.60;;;;;;;23.48;44.76;100313.93;108897;278;39493;-70
2023/09/20 12:36:10;;;;;;;5.30;2.60;;;;;;;23.45;45.02;100310.64;108906;278;39132;-69
2023/09/20 12:38:44;;;;;;;3.80;2.00;;;;;;;23.47;45.58;100314.61;108850;278;39387;-68
2023/09/20 12:41:19;;;;;;;4.50;2.00;;;;;;;23.47;45.72;100317.76;108982;278;38152;-71
2023/09/20 12:43:55;;;;;;;4.00;1.90;;;;;;;23.44;45.29;100311.41;108979;278;39558;-73
2023/09/20 12:46:36;;;;;;;2.70;2.10;;;;;;;23.41;45.00;100308.34;108932;278;40010;-72
2023/09/20 12:49:11;;;;;;;3.80;1.90;;;;;;;23.35;45.05;100307.45;108947;278;38511;-71
2023/09/20 12:51:48;;;;;;;3.90;1.70;;;;;;;23.29;44.73;100311.06;109010;278;38559;-71
2023/09/20 12:54:28;;;;;;;3.50;1.70;;;;;;;23.27;45.13;100310.52;108975;278;39801;-71
2023/09/20 12:57:06;;;;;;;4.40;2.30;;;;;;;23.28;45.33;100306.33;108964;278;38160;-71
2023/09/20 12:59:43;;;;;;;5.50;2.00;;;;;;;23.30;45.60;100304.70;108984;278;38453;-70
2023/09/20 13:02:19;;;;;;;3.80;1.80;;;;;;;23.31;45.80;100305.21;108950;278;38161;-76
2023/09/20 13:04:59;;;;;;;3.40;1.90;;;;;;;23.30;45.54;100304.60;108991;278;38184;-75